Time;durP1;ratioP1;P1;durP2;ratioP2;P2;SDS_P1;SDS_P2;PMS_P1;PMS_P2;Temp;Humidity;BMP_temperature;BMP_pressure;BME280_temperature;BME280_humidity;BME280_pressure;Samples;Min_cycle;Max_cycle;Signal;HPM_P1;HPM_P2
2021/09/09 00:00:19;;;;;;;18.70;13.48;;;23.00;78.40;;;;;;5062692;28;20027;-60
2021/09/09 00:02:45;;;;;;;21.77;13.43;;;23.00;78.50;;;;;;5043248;28;20412;-59
2021/09/09 00:05:10;;;;;;;19.33;14.30;;;23.00;78.50;;;;;;5063443;28;20107;-60
2021/09/09 00:07:36;;;;;;;23.83;16.00;;;22.90;78.50;;;;;;5026763;28;20373;-63
2021/09/09 00:10:03;;;;;;;23.30;15.75;;;23.00;78.70;;;;;;5062946;28;20118;-63
2021/09/09 00:12:28;;;;;;;20.83;16.27;;;22.90;78.60;;;;;;5061623;28;20048;-62
2021/09/09 00:14:54;;;;;;;21.20;16.70;;;22.90;78.70;;;;;;5042396;28;20425;-62
2021/09/09 00:17:19;;;;;;;22.75;16.75;;;22.90;78.70;;;;;;5044034;28;20040;-63
2021/09/09 00:19:45;;;;;;;24.52;20.42;;;22.80;78.70;;;;;;5028833;28;20028;-62
2021/09/09 00:22:10;;;;;;;33.80;28.95;;;22.90;78.80;;;;;;5062826;28;20082;-63
2021/09/09 00:24:36;;;;;;;28.70;24.55;;;22.80;78.80;;;;;;5052233;28;20060;-63
2021/09/09 00:27:02;;;;;;;24.42;20.88;;;22.80;78.90;;;;;;5060744;28;20127;-63
2021/09/09 00:29:27;;;;;;;27.35;20.65;;;22.80;78.90;;;;;;5030969;28;20083;-62
2021/09/09 00:31:53;;;;;;;22.40;18.58;;;22.80;79.00;;;;;;5020896;28;20035;-60
2021/09/09 00:34:18;;;;;;;20.00;17.33;;;22.70;79.00;;;;;;5065126;28;20048;-60
2021/09/09 00:36:44;;;;;;;22.17;18.58;;;22.80;79.10;;;;;;5066318;28;20021;-60
2021/09/09 00:39:09;;;;;;;21.35;15.90;;;22.70;79.20;;;;;;5054325;28;20055;-60
2021/09/09 00:41:35;;;;;;;19.73;15.70;;;22.70;79.20;;;;;;5048387;28;20602;-60
2021/09/09 00:44:01;;;;;;;17.52;15.07;;;22.70;79.30;;;;;;5049873;28;20518;-60
2021/09/09 00:46:26;;;;;;;20.00;15.50;;;22.70;79.30;;;;;;5051650;28;20594;-61
2021/09/09 00:48:52;;;;;;;15.88;14.32;;;22.70;79.30;;;;;;5070850;28;20073;-60
2021/09/09 00:51:18;;;;;;;21.38;14.30;;;22.70;79.30;;;;;;5067567;28;20036;-60
2021/09/09 00:53:43;;;;;;;17.80;13.75;;;22.70;79.40;;;;;;5027352;28;20510;-60
2021/09/09 00:56:09;;;;;;;18.48;15.38;;;22.60;79.40;;;;;;5059151;28;20044;-60
2021/09/09 00:58:36;;;;;;;20.13;16.20;;;22.70;79.50;;;;;;5067865;28;21281;-60
2021/09/09 01:01:01;;;;;;;24.08;18.33;;;22.60;79.50;;;;;;5065391;28;20029;-60
2021/09/09 01:03:27;;;;;;;20.08;17.92;;;22.60;79.50;;;;;;5035397;28;20047;-60
2021/09/09 01:05:52;;;;;;;20.05;16.90;;;22.60;80.20;;;;;;5070114;28;20129;-60
2021/09/09 01:08:18;;;;;;;18.42;15.98;;;22.60;79.60;;;;;;5066256;28;20092;-60
2021/09/09 01:10:43;;;;;;;17.92;15.40;;;22.60;79.70;;;;;;5061161;28;20098;-60
2021/09/09 01:13:09;;;;;;;20.42;15.88;;;22.60;79.60;;;;;;5026704;28;20383;-60
2021/09/09 01:15:38;;;;;;;17.30;15.40;;;22.50;79.60;;;;;;5049563;28;20502;-60
2021/09/09 01:18:11;;;;;;;18.25;15.55;;;22.50;79.60;;;;;;5062319;28;20032;-60
2021/09/09 01:20:37;;;;;;;16.15;14.45;;;22.70;79.70;;;;;;5051306;28;20054;-60
2021/09/09 01:23:03;;;;;;;16.55;13.65;;;22.50;79.60;;;;;;5037232;28;20052;-60
2021/09/09 01:25:28;;;;;;;14.73;13.23;;;22.50;79.50;;;;;;5065283;28;20100;-60
2021/09/09 01:27:54;;;;;;;18.45;13.00;;;22.50;79.50;;;;;;5080269;28;20028;-60
2021/09/09 01:30:19;;;;;;;15.90;12.85;;;22.50;79.50;;;;;;5062611;28;20028;-60
2021/09/09 01:32:45;;;;;;;13.43;12.00;;;22.50;79.40;;;;;;5081020;28;20429;-60
2021/09/09 01:35:10;;;;;;;13.75;12.23;;;22.50;79.40;;;;;;5080134;28;20119;-60
2021/09/09 01:37:36;;;;;;;14.60;12.38;;;22.50;79.40;;;;;;5082577;28;20024;-60
2021/09/09 01:40:01;;;;;;;13.80;12.40;;;22.50;79.40;;;;;;5080464;28;20115;-60
2021/09/09 01:42:27;;;;;;;12.63;11.32;;;22.40;79.30;;;;;;5061581;28;20360;-60
2021/09/09 01:44:52;;;;;;;13.23;11.25;;;22.40;79.30;;;;;;5077717;28;20135;-61
2021/09/09 01:47:18;;;;;;;15.43;11.13;;;22.40;79.30;;;;;;5083279;28;20098;-60
2021/09/09 01:49:44;;;;;;;14.75;12.05;;;22.40;79.30;;;;;;5051055;28;20510;-60
2021/09/09 01:52:09;;;;;;;17.58;11.77;;;22.40;79.30;;;;;;5067123;28;20039;-60
2021/09/09 01:54:35;;;;;;;14.70;11.40;;;22.40;79.30;;;;;;5066347;28;20093;-60
2021/09/09 01:57:00;;;;;;;15.52;10.82;;;22.40;79.30;;;;;;5065054;28;20058;-60
2021/09/09 01:59:26;;;;;;;15.15;11.40;;;22.40;79.50;;;;;;5082229;28;20024;-61
2021/09/09 02:01:51;;;;;;;13.20;11.25;;;22.30;79.30;;;;;;5085073;28;20024;-60
2021/09/09 02:04:17;;;;;;;18.70;12.68;;;22.40;79.30;;;;;;5086332;28;20032;-60
2021/09/09 02:06:42;;;;;;;19.67;14.73;;;22.30;79.30;;;;;;5087445;28;20128;-60
2021/09/09 02:09:08;;;;;;;18.85;13.55;;;22.30;79.40;;;;;;5086519;28;20032;-60
2021/09/09 02:11:33;;;;;;;21.35;12.27;;;22.30;79.40;;;;;;5082763;28;20047;-60
2021/09/09 02:13:59;;;;;;;21.38;11.90;;;22.30;79.50;;;;;;5067240;28;20109;-60
2021/09/09 02:16:24;;;;;;;14.95;12.32;;;22.30;79.40;;;;;;5085281;28;20028;-60
2021/09/09 02:18:50;;;;;;;20.58;12.02;;;22.30;79.50;;;;;;5085795;28;20271;-60
2021/09/09 02:21:15;;;;;;;14.63;11.30;;;22.30;79.50;;;;;;5086066;28;20036;-60
2021/09/09 02:23:41;;;;;;;14.15;11.30;;;22.30;79.60;;;;;;5084027;28;20052;-60
2021/09/09 02:26:06;;;;;;;22.95;11.32;;;22.30;79.60;;;;;;5067047;28;20198;-60
2021/09/09 02:28:32;;;;;;;12.32;9.70;;;22.30;79.70;;;;;;5065094;28;20035;-60
2021/09/09 02:30:58;;;;;;;13.90;9.20;;;22.20;79.70;;;;;;5063830;28;20388;-63
2021/09/09 02:33:23;;;;;;;11.23;10.05;;;22.20;79.70;;;;;;5082216;28;20047;-63
2021/09/09 02:35:49;;;;;;;22.10;10.00;;;22.20;79.80;;;;;;5062295;28;20110;-63
2021/09/09 02:38:14;;;;;;;14.23;9.35;;;22.20;79.90;;;;;;5085852;28;20123;-62
2021/09/09 02:40:40;;;;;;;12.65;9.13;;;22.20;79.90;;;;;;5084729;28;20111;-62
2021/09/09 02:43:05;;;;;;;13.00;8.95;;;22.20;79.80;;;;;;5084796;28;20333;-63
2021/09/09 02:45:31;;;;;;;14.63;8.52;;;22.20;80.00;;;;;;5085460;28;20023;-62
2021/09/09 02:47:56;;;;;;;9.50;8.50;;;22.20;80.00;;;;;;5065073;28;20391;-62
2021/09/09 02:50:22;;;;;;;13.15;8.75;;;22.10;80.10;;;;;;5065575;28;20032;-62
2021/09/09 02:52:47;;;;;;;14.23;8.50;;;22.10;80.10;;;;;;5066974;28;20065;-63
2021/09/09 02:55:13;;;;;;;12.85;8.90;;;22.10;80.30;;;;;;5084630;28;20032;-63
2021/09/09 02:57:38;;;;;;;12.90;8.35;;;22.10;80.20;;;;;;5083074;28;20115;-63
2021/09/09 03:00:05;;;;;;;12.43;8.23;;;22.10;80.30;;;;;;5048537;28;20090;-63
2021/09/09 03:02:30;;;;;;;10.30;7.97;;;22.10;80.30;;;;;;5066376;28;20043;-63
2021/09/09 03:04:56;;;;;;;12.25;7.88;;;22.10;80.40;;;;;;5085040;28;20024;-63
2021/09/09 03:07:21;;;;;;;9.63;7.72;;;22.10;80.70;;;;;;5084947;28;20044;-63
2021/09/09 03:09:47;;;;;;;11.40;7.28;;;22.10;80.80;;;;;;5085101;28;20032;-62
2021/09/09 03:12:12;;;;;;;8.82;7.68;;;22.10;81.00;;;;;;5083626;28;20036;-62
2021/09/09 03:14:38;;;;;;;8.25;6.72;;;22.10;81.10;;;;;;5064953;28;20123;-63
2021/09/09 03:17:04;;;;;;;17.85;7.20;;;21.90;81.20;;;;;;5084430;28;20032;-63
2021/09/09 03:19:29;;;;;;;10.93;7.68;;;22.10;81.60;;;;;;5065890;28;20052;-62
2021/09/09 03:21:55;;;;;;;11.38;7.38;;;22.00;81.50;;;;;;5065320;28;20430;-63
2021/09/09 03:24:20;;;;;;;7.95;6.55;;;22.10;81.40;;;;;;5085624;28;20568;-62
2021/09/09 03:26:46;;;;;;;22.98;8.75;;;22.10;81.40;;;;;;5064475;28;20024;-62
2021/09/09 03:29:11;;;;;;;22.70;8.95;;;22.00;81.40;;;;;;5064724;28;20093;-62
2021/09/09 03:31:37;;;;;;;81.03;11.88;;;22.00;81.30;;;;;;5067127;28;20169;-62
2021/09/09 03:34:03;;;;;;;62.33;11.98;;;22.00;81.20;;;;;;5049779;28;20039;-63
2021/09/09 03:36:28;;;;;;;42.45;8.57;;;22.00;81.30;;;;;;5064297;28;20494;-63
2021/09/09 03:38:54;;;;;;;51.53;10.30;;;21.90;81.20;;;;;;5083484;28;20130;-63
2021/09/09 03:41:20;;;;;;;52.83;11.20;;;21.90;81.20;;;;;;5064411;28;20059;-62
2021/09/09 03:43:46;;;;;;;54.33;11.27;;;21.90;81.20;;;;;;5064922;28;20056;-63
2021/09/09 03:46:11;;;;;;;58.70;10.57;;;21.90;81.90;;;;;;5084447;28;20539;-62
2021/09/09 03:48:37;;;;;;;37.53;8.65;;;21.90;81.30;;;;;;5081505;28;20051;-62
2021/09/09 03:51:02;;;;;;;46.47;10.13;;;21.90;81.30;;;;;;5081870;28;20094;-63
2021/09/09 03:53:28;;;;;;;32.92;8.75;;;21.90;81.20;;;;;;5066052;28;20039;-62
2021/09/09 03:55:53;;;;;;;43.13;9.13;;;21.90;81.20;;;;;;5083980;28;20024;-63
2021/09/09 03:58:19;;;;;;;42.85;9.35;;;21.90;81.10;;;;;;5064574;28;20561;-63
2021/09/09 04:00:45;;;;;;;44.35;8.25;;;21.90;81.10;;;;;;5083071;28;20034;-63
2021/09/09 04:03:10;;;;;;;32.97;8.60;;;21.90;81.20;;;;;;5082913;28;20118;-62
2021/09/09 04:05:35;;;;;;;36.75;9.73;;;21.90;81.20;;;;;;5064416;28;20112;-63
2021/09/09 04:08:01;;;;;;;28.65;8.05;;;21.90;81.20;;;;;;5064208;28;20077;-62
2021/09/09 04:10:27;;;;;;;39.13;8.35;;;21.80;81.20;;;;;;5065289;28;20100;-63
2021/09/09 04:12:52;;;;;;;30.52;8.57;;;21.80;81.30;;;;;;5084323;28;20040;-62
2021/09/09 04:15:18;;;;;;;24.90;7.30;;;21.90;81.40;;;;;;5082858;28;20055;-62
2021/09/09 04:17:43;;;;;;;30.10;7.38;;;21.80;81.40;;;;;;5081223;28;20067;-63
2021/09/09 04:20:09;;;;;;;36.63;7.70;;;21.80;81.40;;;;;;5065402;28;20056;-62
2021/09/09 04:22:35;;;;;;;18.52;7.75;;;21.80;81.40;;;;;;5064775;28;20040;-63
2021/09/09 04:25:02;;;;;;;24.77;7.47;;;21.80;81.50;;;;;;5064760;28;20083;-62
2021/09/09 04:27:30;;;;;;;24.73;7.20;;;21.80;81.70;;;;;;5082369;28;20147;-62
2021/09/09 04:29:56;;;;;;;23.33;7.53;;;21.70;81.70;;;;;;5063588;28;20221;-62
2021/09/09 04:32:21;;;;;;;24.95;7.50;;;21.80;81.80;;;;;;5064715;28;20158;-62
2021/09/09 04:34:47;;;;;;;27.13;7.10;;;21.70;81.80;;;;;;5081904;28;20030;-62
2021/09/09 04:37:12;;;;;;;36.20;8.05;;;21.90;81.80;;;;;;5083357;28;20031;-63
2021/09/09 04:39:38;;;;;;;26.33;7.90;;;21.70;81.80;;;;;;5083006;28;20067;-62
2021/09/09 04:42:04;;;;;;;25.50;7.13;;;21.70;81.70;;;;;;5081542;28;20043;-63
2021/09/09 04:44:29;;;;;;;24.52;7.35;;;21.70;81.70;;;;;;5064402;28;20475;-63
2021/09/09 04:46:55;;;;;;;33.20;7.47;;;21.70;81.70;;;;;;5063333;28;20100;-62
2021/09/09 04:49:20;;;;;;;16.70;7.15;;;21.70;81.70;;;;;;5063959;28;20127;-62
2021/09/09 04:51:46;;;;;;;27.83;7.75;;;21.70;81.70;;;;;;5082093;28;20255;-63
2021/09/09 04:54:11;;;;;;;23.67;6.95;;;21.60;81.60;;;;;;5063620;28;20194;-62
2021/09/09 04:56:37;;;;;;;29.45;8.13;;;21.70;81.60;;;;;;5082918;28;20558;-62
2021/09/09 04:59:02;;;;;;;20.15;7.30;;;21.70;81.80;;;;;;5081196;28;20041;-62
2021/09/09 05:01:28;;;;;;;18.52;7.38;;;21.60;81.80;;;;;;5064453;28;20024;-63
2021/09/09 05:03:53;;;;;;;21.92;6.82;;;21.70;81.70;;;;;;5082414;28;20111;-63
2021/09/09 05:06:19;;;;;;;14.93;6.65;;;21.70;81.70;;;;;;5063051;28;20114;-63
2021/09/09 05:08:44;;;;;;;25.30;8.00;;;21.70;81.70;;;;;;5083924;28;20028;-63
2021/09/09 05:11:11;;;;;;;22.45;6.38;;;21.60;81.70;;;;;;5081709;28;20030;-62
2021/09/09 05:13:37;;;;;;;19.15;6.75;;;21.60;81.70;;;;;;5065057;28;20127;-63
2021/09/09 05:16:04;;;;;;;21.48;6.57;;;21.60;81.70;;;;;;5080555;28;20039;-63
2021/09/09 05:18:30;;;;;;;20.20;6.60;;;21.60;81.80;;;;;;5079146;28;20024;-62
2021/09/09 05:20:55;;;;;;;16.50;6.32;;;21.50;81.70;;;;;;5063966;28;20036;-63
2021/09/09 05:23:20;;;;;;;20.63;6.32;;;21.60;81.80;;;;;;5066614;28;20059;-63
2021/09/09 05:25:46;;;;;;;15.05;6.30;;;21.60;81.90;;;;;;5086868;28;20028;-62
2021/09/09 05:28:12;;;;;;;17.98;6.22;;;21.50;81.90;;;;;;5065980;28;20476;-63
2021/09/09 05:30:37;;;;;;;18.52;6.30;;;21.50;81.90;;;;;;5064938;28;20352;-63
2021/09/09 05:33:03;;;;;;;13.32;5.97;;;21.50;82.00;;;;;;5087379;28;20518;-63
2021/09/09 05:35:28;;;;;;;20.73;6.78;;;21.50;82.00;;;;;;5086541;28;20107;-63
2021/09/09 05:37:54;;;;;;;16.60;6.63;;;21.50;82.10;;;;;;5080820;28;20028;-63
2021/09/09 05:40:19;;;;;;;14.23;5.90;;;21.60;82.20;;;;;;5067105;28;20093;-62
2021/09/09 05:42:45;;;;;;;12.95;6.00;;;21.50;82.10;;;;;;5084030;28;20024;-63
2021/09/09 05:45:11;;;;;;;13.23;6.18;;;21.40;82.00;;;;;;5068275;28;20031;-62
2021/09/09 05:47:36;;;;;;;11.93;5.85;;;21.40;82.00;;;;;;5087277;28;20031;-62
2021/09/09 05:50:02;;;;;;;14.70;6.20;;;21.50;82.10;;;;;;5066314;28;20051;-62
2021/09/09 05:52:27;;;;;;;14.38;6.05;;;21.50;82.10;;;;;;5065792;28;20035;-63
2021/09/09 05:54:53;;;;;;;14.27;6.18;;;21.50;82.20;;;;;;5066087;28;20950;-63
2021/09/09 05:57:19;;;;;;;11.45;5.78;;;21.40;82.10;;;;;;5085197;28;20024;-63
2021/09/09 05:59:44;;;;;;;9.05;5.65;;;21.40;82.10;;;;;;5085822;28;20036;-62
2021/09/09 06:02:14;;;;;;;10.02;5.80;;;21.40;82.10;;;;;;5065317;28;20107;-63
2021/09/09 06:04:40;;;;;;;12.30;5.95;;;21.40;82.00;;;;;;5065539;28;20024;-62
2021/09/09 06:07:05;;;;;;;6.63;5.45;;;21.40;82.10;;;;;;5044346;28;20793;-63
2021/09/09 06:09:31;;;;;;;8.43;5.68;;;21.40;82.10;;;;;;5064925;28;20024;-63
2021/09/09 06:11:56;;;;;;;10.82;6.10;;;21.40;82.10;;;;;;5083978;28;20028;-63
2021/09/09 06:14:22;;;;;;;13.82;5.97;;;21.40;82.10;;;;;;5083500;28;20024;-63
2021/09/09 06:16:47;;;;;;;12.52;5.65;;;21.40;82.10;;;;;;5083248;28;20032;-63
2021/09/09 06:19:13;;;;;;;13.32;5.95;;;21.40;82.20;;;;;;5081446;28;20492;-63
2021/09/09 06:21:38;;;;;;;8.43;5.85;;;21.50;82.20;;;;;;5048840;28;20034;-62
2021/09/09 06:24:06;;;;;;;9.63;5.45;;;21.40;82.20;;;;;;5062596;28;20395;-62
2021/09/09 06:26:32;;;;;;;10.57;5.47;;;21.50;82.30;;;;;;5080029;28;20162;-62
2021/09/09 06:28:57;;;;;;;9.80;5.95;;;21.40;82.20;;;;;;5035467;28;20067;-62
2021/09/09 06:31:23;;;;;;;17.63;6.00;;;21.50;82.20;;;;;;5055031;28;20028;-63
2021/09/09 06:33:48;;;;;;;11.45;6.00;;;21.40;82.10;;;;;;5058029;28;20052;-62
2021/09/09 06:36:14;;;;;;;13.20;6.18;;;21.40;82.20;;;;;;5061961;28;20020;-62
2021/09/09 06:38:39;;;;;;;12.10;6.22;;;21.40;82.30;;;;;;5077653;28;20040;-62
2021/09/09 06:41:05;;;;;;;17.35;6.38;;;21.40;82.30;;;;;;5045946;28;20475;-63
2021/09/09 06:43:30;;;;;;;24.63;7.00;;;21.50;82.40;;;;;;5081173;28;20028;-63
2021/09/09 06:45:56;;;;;;;23.27;6.97;;;21.50;82.40;;;;;;5079605;28;20168;-63
2021/09/09 06:48:21;;;;;;;21.98;7.25;;;21.50;82.90;;;;;;5056043;28;20114;-63
2021/09/09 06:50:47;;;;;;;25.38;6.85;;;21.40;82.20;;;;;;5078693;28;20030;-62
2021/09/09 06:53:13;;;;;;;19.77;7.18;;;21.40;82.20;;;;;;5081565;28;20032;-63
2021/09/09 06:55:38;;;;;;;21.85;7.03;;;21.50;82.30;;;;;;5080571;28;20027;-62
2021/09/09 06:58:04;;;;;;;33.78;7.35;;;21.40;82.20;;;;;;5079119;28;20036;-62
2021/09/09 07:00:29;;;;;;;22.75;6.30;;;21.40;82.20;;;;;;5077147;28;20118;-62
2021/09/09 07:02:55;;;;;;;47.00;9.30;;;21.40;82.50;;;;;;5062257;28;20471;-62
2021/09/09 07:05:20;;;;;;;53.20;9.90;;;21.50;82.60;;;;;;5080513;28;20036;-63
2021/09/09 07:07:46;;;;;;;60.53;10.77;;;21.50;82.90;;;;;;5044998;28;20032;-63
2021/09/09 07:10:11;;;;;;;56.30;8.88;;;21.40;83.20;;;;;;5046396;28;20020;-62
2021/09/09 07:12:37;;;;;;;64.22;9.85;;;21.40;83.30;;;;;;5075762;28;20037;-63
2021/09/09 07:15:04;;;;;;;30.25;8.27;;;21.40;83.50;;;;;;5056823;28;20055;-63
2021/09/09 07:17:29;;;;;;;28.10;7.03;;;21.30;83.60;;;;;;5080361;28;20035;-63
2021/09/09 07:19:55;;;;;;;31.90;7.53;;;21.30;83.70;;;;;;5081369;28;20028;-62
2021/09/09 07:22:21;;;;;;;29.10;7.85;;;21.30;83.80;;;;;;5062986;28;20093;-62
2021/09/09 07:24:46;;;;;;;31.83;7.13;;;21.30;83.80;;;;;;5074043;28;20086;-63
2021/09/09 07:27:12;;;;;;;42.72;7.97;;;21.30;83.90;;;;;;5078026;28;20028;-63
2021/09/09 07:29:37;;;;;;;46.63;9.60;;;21.30;83.70;;;;;;5044006;28;20467;-63
2021/09/09 07:32:03;;;;;;;38.97;8.00;;;21.30;83.70;;;;;;5079833;28;20162;-62
2021/09/09 07:34:29;;;;;;;40.70;8.88;;;21.30;83.60;;;;;;5065646;28;20049;-63
2021/09/09 07:36:54;;;;;;;47.83;8.80;;;21.30;83.70;;;;;;5066612;28;20028;-63
2021/09/09 07:39:20;;;;;;;32.60;7.65;;;21.30;83.70;;;;;;5048269;28;20118;-62
2021/09/09 07:41:46;;;;;;;62.55;9.48;;;21.40;83.50;;;;;;5068277;28;20055;-63
2021/09/09 07:44:11;;;;;;;45.30;8.90;;;21.40;83.50;;;;;;5069139;28;20606;-63
2021/09/09 07:46:38;;;;;;;45.30;8.20;;;21.30;83.40;;;;;;5063087;28;20032;-62
2021/09/09 07:49:03;;;;;;;48.95;8.63;;;21.40;83.20;;;;;;5061029;28;20089;-63
2021/09/09 07:51:29;;;;;;;30.95;7.68;;;21.40;83.00;;;;;;5059889;28;20538;-62
2021/09/09 07:53:55;;;;;;;67.32;10.15;;;21.50;83.10;;;;;;5061728;28;20028;-63
2021/09/09 07:56:20;;;;;;;23.33;7.75;;;21.50;83.00;;;;;;5074721;28;20035;-63
2021/09/09 07:58:49;;;;;;;39.60;8.25;;;21.50;83.10;;;;;;5073829;28;20055;-63
2021/09/09 08:01:16;;;;;;;42.72;7.95;;;21.50;83.20;;;;;;5074497;28;20059;-63
2021/09/09 08:03:42;;;;;;;26.65;7.80;;;21.50;83.30;;;;;;5058419;28;20028;-62
2021/09/09 08:06:08;;;;;;;33.63;8.23;;;21.50;83.10;;;;;;5043792;28;20042;-63
2021/09/09 08:08:33;;;;;;;22.23;6.53;;;21.50;83.00;;;;;;5075240;28;20464;-62
2021/09/09 08:10:58;;;;;;;36.20;7.97;;;21.50;82.90;;;;;;5078238;28;20028;-63
2021/09/09 08:13:24;;;;;;;25.75;7.43;;;21.60;83.10;;;;;;5056003;28;20127;-63
2021/09/09 08:15:49;;;;;;;27.13;8.13;;;21.50;83.10;;;;;;5036953;28;20024;-63
2021/09/09 08:18:15;;;;;;;30.70;8.35;;;21.60;82.80;;;;;;5057520;28;20393;-63
2021/09/09 08:20:41;;;;;;;37.58;8.73;;;21.60;82.80;;;;;;5075312;28;20446;-63
2021/09/09 08:23:06;;;;;;;40.08;7.63;;;21.60;83.10;;;;;;5068080;28;20107;-63
2021/09/09 08:25:32;;;;;;;27.52;7.93;;;21.60;83.00;;;;;;5078825;28;20487;-63
2021/09/09 08:27:58;;;;;;;46.35;7.93;;;21.60;83.00;;;;;;5041832;28;20025;-64
2021/09/09 08:30:24;;;;;;;49.15;9.30;;;21.60;83.00;;;;;;5078543;28;20031;-62
2021/09/09 08:32:50;;;;;;;50.55;9.30;;;21.70;82.90;;;;;;5061270;28;20114;-61
2021/09/09 08:35:15;;;;;;;68.03;10.77;;;21.70;82.80;;;;;;5060297;28;20055;-61
2021/09/09 08:37:41;;;;;;;31.17;8.85;;;21.70;82.70;;;;;;5058138;28;20027;-61
2021/09/09 08:40:09;;;;;;;34.22;8.20;;;21.80;82.70;;;;;;5058733;28;20118;-61
2021/09/09 08:42:39;;;;;;;47.17;9.40;;;21.60;82.70;;;;;;5071099;28;20046;-61
2021/09/09 08:45:05;;;;;;;31.58;7.55;;;21.80;82.60;;;;;;5061090;28;20105;-61
2021/09/09 08:47:31;;;;;;;45.25;8.85;;;21.80;82.80;;;;;;5075896;28;20024;-61
2021/09/09 08:49:56;;;;;;;29.75;8.15;;;21.90;82.80;;;;;;5059081;28;20047;-61
2021/09/09 08:52:22;;;;;;;47.65;8.68;;;21.90;82.70;;;;;;5053663;28;20032;-61
2021/09/09 08:54:47;;;;;;;33.50;7.85;;;21.90;82.70;;;;;;5074866;28;20068;-61
2021/09/09 08:57:19;;;;;;;35.58;7.43;;;21.80;82.50;;;;;;5051416;28;20037;-63
2021/09/09 08:59:45;;;;;;;28.20;7.45;;;22.00;82.50;;;;;;5055149;28;20089;-62
2021/09/09 09:02:10;;;;;;;25.50;8.02;;;22.10;82.50;;;;;;5074231;28;20043;-61
2021/09/09 09:04:37;;;;;;;24.45;6.95;;;22.10;82.40;;;;;;5044710;28;20020;-62
2021/09/09 09:07:04;;;;;;;30.75;7.47;;;22.20;82.30;;;;;;5073014;28;20131;-61
2021/09/09 09:09:33;;;;;;;33.45;7.60;;;22.20;82.20;;;;;;5076407;28;20107;-61
2021/09/09 09:11:59;;;;;;;26.27;6.88;;;22.30;82.00;;;;;;5055768;28;20023;-61
2021/09/09 09:14:25;;;;;;;41.72;6.90;;;22.30;81.90;;;;;;5055858;28;20024;-62
2021/09/09 09:16:53;;;;;;;25.02;6.95;;;22.30;81.90;;;;;;5072965;28;20096;-61
2021/09/09 09:19:26;;;;;;;32.70;6.60;;;22.30;81.80;;;;;;5051778;28;20036;-62
2021/09/09 09:21:57;;;;;;;45.15;7.93;;;22.30;81.80;;;;;;5071630;28;20078;-61
2021/09/09 09:24:23;;;;;;;29.38;7.15;;;22.30;81.90;;;;;;5041362;28;20455;-61
2021/09/09 09:27:11;;;;;;;30.92;7.43;;;22.40;82.00;;;;;;5058020;28;20024;-62
2021/09/09 09:29:37;;;;;;;29.85;6.63;;;22.30;82.00;;;;;;5071843;28;20552;-60
2021/09/09 09:32:13;;;;;;;31.58;7.53;;;22.40;82.20;;;;;;5074547;28;20502;-61
2021/09/09 09:34:39;;;;;;;30.65;7.50;;;22.40;82.30;;;;;;5060408;28;20020;-60
2021/09/09 09:37:05;;;;;;;34.88;7.50;;;22.40;82.20;;;;;;5076724;28;20116;-61
2021/09/09 09:39:31;;;;;;;34.50;7.60;;;22.40;82.20;;;;;;5076924;28;20115;-61
2021/09/09 09:42:01;;;;;;;43.90;8.70;;;22.50;82.30;;;;;;5058528;28;20111;-61
2021/09/09 09:44:34;;;;;;;44.78;8.85;;;22.50;82.30;;;;;;5054389;28;20426;-61
2021/09/09 09:47:14;;;;;;;38.13;7.53;;;22.60;82.20;;;;;;5077616;28;20090;-61
2021/09/09 09:49:42;;;;;;;57.03;9.05;;;22.60;82.20;;;;;;5060218;28;21007;-61
2021/09/09 09:52:09;;;;;;;77.10;10.18;;;22.60;82.10;;;;;;5040166;28;20020;-61
2021/09/09 09:54:35;;;;;;;54.70;8.93;;;22.70;82.30;;;;;;5056437;28;20028;-61
2021/09/09 09:57:01;;;;;;;57.50;9.98;;;22.70;82.10;;;;;;5055526;28;20039;-61
2021/09/09 09:59:26;;;;;;;46.50;8.45;;;22.80;82.00;;;;;;5037820;28;20404;-62
2021/09/09 10:01:52;;;;;;;29.98;7.97;;;22.80;82.00;;;;;;5048059;28;20146;-61
2021/09/09 10:04:21;;;;;;;51.33;9.18;;;22.80;81.90;;;;;;5074621;28;20105;-61
2021/09/09 10:06:48;;;;;;;55.78;8.25;;;22.90;81.80;;;;;;5060334;28;20036;-61
2021/09/09 10:09:14;;;;;;;52.55;9.02;;;22.90;81.30;;;;;;5061143;28;20032;-61
2021/09/09 10:11:40;;;;;;;51.53;8.52;;;22.90;81.00;;;;;;5063333;28;20028;-61
2021/09/09 10:14:06;;;;;;;43.10;8.35;;;22.90;81.10;;;;;;5057462;28;20038;-61
2021/09/09 10:16:35;;;;;;;63.30;8.65;;;22.90;80.80;;;;;;5062138;28;20036;-61
2021/09/09 10:19:00;;;;;;;54.30;9.05;;;22.90;80.90;;;;;;5060958;28;20034;-61
2021/09/09 10:22:01;;;;;;;52.58;9.45;;;22.90;80.80;;;;;;5060419;28;20028;-61
2021/09/09 10:24:31;;;;;;;45.00;8.02;;;22.90;80.60;;;;;;5063702;28;20167;-61
2021/09/09 10:27:19;;;;;;;39.90;6.80;;;23.00;80.30;;;;;;5045093;28;20056;-61
2021/09/09 10:29:59;;;;;;;37.70;7.28;;;23.00;80.00;;;;;;5062459;28;20037;-63
2021/09/09 10:32:35;;;;;;;46.33;7.63;;;23.00;79.80;;;;;;5056801;28;20051;-61
2021/09/09 10:35:16;;;;;;;50.13;7.22;;;23.10;79.90;;;;;;5077591;28;20040;-61
2021/09/09 10:37:45;;;;;;;41.65;7.35;;;23.10;79.70;;;;;;5080157;28;20028;-61
2021/09/09 10:40:33;;;;;;;41.95;7.90;;;23.10;79.70;;;;;;5071586;28;20506;-61
2021/09/09 10:43:00;;;;;;;99.38;12.48;;;23.20;79.80;;;;;;5079219;28;20048;-61
2021/09/09 10:45:38;;;;;;;78.88;11.57;;;23.20;79.50;;;;;;5056574;28;20035;-63
2021/09/09 10:48:22;;;;;;;68.20;11.52;;;23.20;79.10;;;;;;5097768;27;20404;-64
2021/09/09 10:51:14;;;;;;;75.93;10.40;;;23.30;79.10;;;;;;5063930;28;20046;-61
2021/09/09 10:53:40;;;;;;;82.30;13.00;;;23.30;79.00;;;;;;5065667;28;20051;-63
2021/09/09 10:56:22;;;;;;;61.60;10.05;;;23.30;77.90;;;;;;5030496;28;20035;-64
2021/09/09 10:59:13;;;;;;;70.20;12.52;;;23.40;77.80;;;;;;5050213;28;20082;-61
2021/09/09 11:01:43;;;;;;;83.80;10.20;;;23.40;77.80;;;;;;5063111;28;20093;-61
2021/09/09 11:04:29;;;;;;;55.42;11.27;;;23.50;77.80;;;;;;5062824;28;20143;-61
2021/09/09 11:06:55;;;;;;;70.00;10.40;;;23.50;77.80;;;;;;5046479;28;20032;-60
2021/09/09 11:09:20;;;;;;;48.35;9.20;;;23.50;77.80;;;;;;5059060;28;20032;-61
2021/09/09 11:11:54;;;;;;;46.65;8.35;;;23.50;77.70;;;;;;5080584;28;20047;-61
2021/09/09 11:14:22;;;;;;;64.15;11.05;;;23.50;77.40;;;;;;5063930;28;20135;-61
2021/09/09 11:16:48;;;;;;;70.72;10.00;;;23.50;77.50;;;;;;5081857;28;20097;-61
2021/09/09 11:19:18;;;;;;;64.47;9.38;;;23.60;77.50;;;;;;5063009;28;20036;-61
2021/09/09 11:21:44;;;;;;;81.28;10.40;;;23.60;77.00;;;;;;5062376;28;20036;-61
2021/09/09 11:24:11;;;;;;;77.90;10.57;;;23.70;75.50;;;;;;5062731;28;20063;-61
2021/09/09 11:26:38;;;;;;;69.60;10.32;;;23.70;75.50;;;;;;5061169;28;20407;-61
2021/09/09 11:29:04;;;;;;;74.95;9.85;;;23.70;74.90;;;;;;5064074;28;20024;-61
2021/09/09 11:31:50;;;;;;;74.35;10.73;;;23.80;74.50;;;;;;5081780;28;20034;-61
2021/09/09 11:34:27;;;;;;;51.10;10.25;;;23.80;74.00;;;;;;5046812;28;20068;-61
2021/09/09 11:36:53;;;;;;;63.13;9.68;;;23.80;73.90;;;;;;5058140;28;20712;-61
2021/09/09 11:39:23;;;;;;;54.13;10.40;;;23.80;73.50;;;;;;5059247;28;20035;-61
2021/09/09 11:41:51;;;;;;;55.38;8.95;;;23.90;73.30;;;;;;5063643;28;20028;-61
2021/09/09 11:44:38;;;;;;;55.53;8.05;;;23.90;72.90;;;;;;5079666;28;20468;-61
2021/09/09 11:47:15;;;;;;;56.45;9.98;;;24.00;72.40;;;;;;5058938;28;20067;-61
2021/09/09 11:49:41;;;;;;;45.17;9.07;;;24.00;72.20;;;;;;5073967;28;20024;-61
2021/09/09 11:52:06;;;;;;;39.95;7.57;;;24.10;72.10;;;;;;5043978;28;20032;-61
2021/09/09 11:54:36;;;;;;;36.55;7.75;;;24.30;71.30;;;;;;5079193;28;20145;-61
2021/09/09 11:57:11;;;;;;;32.22;7.45;;;24.10;71.00;;;;;;5047504;28;20155;-61
2021/09/09 11:59:37;;;;;;;28.95;6.75;;;24.20;71.00;;;;;;5060948;28;20024;-61
2021/09/09 12:02:06;;;;;;;24.52;6.50;;;24.20;70.30;;;;;;5056140;28;20036;-61
2021/09/09 12:04:38;;;;;;;35.00;7.20;;;24.20;70.20;;;;;;5043860;28;20074;-61
2021/09/09 12:07:06;;;;;;;27.95;6.57;;;24.20;70.20;;;;;;5060230;28;20028;-63
2021/09/09 12:09:33;;;;;;;37.40;7.47;;;24.30;70.00;;;;;;5061790;28;20115;-60
2021/09/09 12:12:05;;;;;;;25.15;7.55;;;24.30;70.20;;;;;;5041524;28;20025;-60
2021/09/09 12:14:30;;;;;;;20.98;6.93;;;24.30;70.10;;;;;;5077720;28;20748;-60
2021/09/09 12:17:12;;;;;;;42.35;9.55;;;24.30;69.90;;;;;;5041271;28;20044;-61
2021/09/09 12:19:57;;;;;;;44.53;8.77;;;24.40;70.00;;;;;;5061379;28;20078;-60
2021/09/09 12:22:48;;;;;;;41.08;8.50;;;24.40;69.90;;;;;;5075465;28;20306;-60
2021/09/09 12:25:15;;;;;;;51.92;8.77;;;24.50;70.10;;;;;;5051873;28;20036;-60
2021/09/09 12:28:16;;;;;;;38.05;8.25;;;24.50;69.80;;;;;;5059103;28;20123;-60
2021/09/09 12:30:52;;;;;;;26.23;7.95;;;24.50;69.70;;;;;;5070401;28;20074;-60
2021/09/09 12:33:20;;;;;;;40.15;8.68;;;24.60;69.60;;;;;;5055810;28;20056;-60